Time;durP1;ratioP1;P1;durP2;ratioP2;P2;SDS_P1;SDS_P2;PMS_P1;PMS_P2;Temp;Humidity;BMP_temperature;BMP_pressure;BME280_temperature;BME280_humidity;BME280_pressure;Samples;Min_cycle;Max_cycle;Signal;HPM_P1;HPM_P2
2023/12/13 00:00:00;;;;;;;3.13;1.83;;;8.70;99.90;;;;;;5021241;28;20053;-75
2023/12/13 00:02:25;;;;;;;12.35;2.35;;;8.70;99.90;;;;;;5006650;28;20041;-75
2023/12/13 00:04:51;;;;;;;4.05;1.77;;;8.70;99.90;;;;;;5000332;28;20124;-75
2023/12/13 00:07:18;;;;;;;2.83;1.63;;;8.70;99.90;;;;;;5021325;28;20056;-74
2023/12/13 00:09:44;;;;;;;4.20;1.92;;;8.80;99.90;;;;;;5020589;28;20501;-74
2023/12/13 00:12:09;;;;;;;5.43;2.90;;;8.80;99.90;;;;;;5024235;28;20040;-74
2023/12/13 00:14:35;;;;;;;4.63;2.00;;;8.80;99.90;;;;;;5016253;28;20033;-74
2023/12/13 00:17:01;;;;;;;3.80;2.40;;;8.80;99.90;;;;;;5017872;28;20051;-74
2023/12/13 00:19:27;;;;;;;5.20;2.88;;;8.80;99.90;;;;;;5018923;28;20489;-74
2023/12/13 00:21:52;;;;;;;9.98;2.22;;;8.90;99.90;;;;;;5020703;28;20033;-74
2023/12/13 00:24:18;;;;;;;3.97;2.97;;;8.90;99.90;;;;;;5018236;28;20038;-74
2023/12/13 00:26:44;;;;;;;4.28;2.45;;;8.80;99.90;;;;;;5009611;28;20176;-74
2023/12/13 00:29:09;;;;;;;7.53;4.03;;;8.90;99.90;;;;;;5020388;28;20140;-74
2023/12/13 00:31:35;;;;;;;4.05;2.67;;;8.90;99.90;;;;;;5023031;28;20253;-73
2023/12/13 00:34:01;;;;;;;5.82;3.38;;;8.90;99.90;;;;;;5015933;28;20114;-73
2023/12/13 00:36:27;;;;;;;5.45;3.17;;;8.90;99.90;;;;;;5024473;28;20509;-73
2023/12/13 00:38:52;;;;;;;3.65;2.50;;;8.90;99.90;;;;;;5021880;28;21174;-73
2023/12/13 00:41:18;;;;;;;5.90;3.55;;;8.90;99.90;;;;;;5022189;28;20060;-73
2023/12/13 00:43:44;;;;;;;5.30;3.20;;;8.90;99.90;;;;;;5021102;28;20048;-72
2023/12/13 00:46:19;;;;;;;6.22;3.80;;;8.80;99.90;;;;;;5017205;28;20040;-73
2023/12/13 00:48:47;;;;;;;5.88;2.83;;;8.80;99.90;;;;;;5021896;28;20029;-73
2023/12/13 00:51:20;;;;;;;4.63;2.92;;;8.80;99.90;;;;;;5020216;28;20124;-72
2023/12/13 00:53:47;;;;;;;6.00;2.97;;;8.80;99.90;;;;;;5028464;28;20045;-72
2023/12/13 00:56:13;;;;;;;4.78;3.05;;;8.80;99.90;;;;;;5023490;28;20060;-72
2023/12/13 00:58:39;;;;;;;5.80;3.33;;;8.80;99.90;;;;;;5019776;28;20049;-73
2023/12/13 01:01:07;;;;;;;5.18;2.83;;;8.80;99.90;;;;;;5018907;28;20054;-73
2023/12/13 01:03:33;;;;;;;4.75;2.50;;;8.70;99.90;;;;;;5006549;28;20168;-72
2023/12/13 01:05:59;;;;;;;14.73;3.55;;;8.70;99.90;;;;;;5014337;28;20513;-72
2023/12/13 01:08:24;;;;;;;4.90;2.33;;;8.70;99.90;;;;;;5020641;28;20510;-72
2023/12/13 01:10:50;;;;;;;5.00;3.22;;;8.70;99.90;;;;;;5015367;28;20390;-72
2023/12/13 01:13:16;;;;;;;4.80;2.63;;;8.70;99.90;;;;;;5021205;28;20549;-72
2023/12/13 01:15:41;;;;;;;4.68;3.03;;;8.70;99.90;;;;;;5018413;28;20042;-72
2023/12/13 01:18:07;;;;;;;7.10;2.72;;;8.70;99.90;;;;;;5019519;28;20029;-72
2023/12/13 01:20:33;;;;;;;5.60;3.50;;;8.70;99.90;;;;;;5017927;28;20041;-72
2023/12/13 01:22:58;;;;;;;6.18;2.97;;;8.80;99.90;;;;;;5015006;28;20040;-72
2023/12/13 01:25:24;;;;;;;3.47;2.13;;;8.80;99.90;;;;;;5015709;28;20084;-72
2023/12/13 01:27:50;;;;;;;5.45;2.92;;;8.80;99.90;;;;;;5019146;28;20044;-72
2023/12/13 01:30:16;;;;;;;5.00;3.00;;;8.80;99.90;;;;;;5019025;28;20120;-72
2023/12/13 01:32:41;;;;;;;4.15;2.63;;;8.80;99.90;;;;;;5015138;28;20042;-72
2023/12/13 01:35:08;;;;;;;5.25;2.85;;;8.80;99.90;;;;;;5021266;28;20320;-72
2023/12/13 01:37:34;;;;;;;4.65;2.58;;;8.80;99.90;;;;;;5017534;28;20041;-72
2023/12/13 01:39:59;;;;;;;5.70;3.33;;;8.80;99.90;;;;;;5019814;28;20104;-72
2023/12/13 01:42:25;;;;;;;3.33;1.95;;;8.80;99.90;;;;;;5017109;28;20610;-73
2023/12/13 01:44:51;;;;;;;6.35;3.22;;;8.80;99.90;;;;;;5025456;28;20047;-73
2023/12/13 01:47:17;;;;;;;4.35;2.38;;;8.80;99.90;;;;;;5023229;28;20081;-73
2023/12/13 01:49:45;;;;;;;3.70;1.75;;;8.80;99.90;;;;;;5021304;28;20041;-73
2023/12/13 01:52:12;;;;;;;3.65;1.38;;;8.80;99.90;;;;;;5015100;28;20057;-73
2023/12/13 01:54:38;;;;;;;9.02;2.08;;;8.80;99.90;;;;;;5009836;28;20037;-73
2023/12/13 01:57:04;;;;;;;2.13;1.15;;;8.80;99.90;;;;;;5019436;28;20125;-73
2023/12/13 01:59:33;;;;;;;7.50;2.70;;;8.80;99.90;;;;;;5024323;28;20033;-74
2023/12/13 02:02:00;;;;;;;2.58;1.83;;;8.80;99.90;;;;;;5030848;28;20075;-74
2023/12/13 02:04:27;;;;;;;3.08;1.77;;;8.80;99.90;;;;;;5015308;28;20041;-74
2023/12/13 02:06:53;;;;;;;2.03;1.48;;;8.80;99.90;;;;;;5019849;28;20045;-74
2023/12/13 02:09:19;;;;;;;3.05;1.42;;;8.80;99.90;;;;;;5018699;28;20111;-75
2023/12/13 02:11:46;;;;;;;1.48;0.88;;;8.80;99.90;;;;;;5022519;28;20473;-76
2023/12/13 02:14:13;;;;;;;2.47;1.05;;;8.80;99.90;;;;;;5029276;28;20056;-75
2023/12/13 02:16:39;;;;;;;4.38;1.42;;;8.80;99.90;;;;;;5024509;28;20172;-75
2023/12/13 02:19:05;;;;;;;1.98;1.33;;;8.80;99.90;;;;;;5014731;28;20513;-75
2023/12/13 02:21:31;;;;;;;3.88;1.27;;;8.80;99.90;;;;;;5021845;28;20043;-75
2023/12/13 02:24:03;;;;;;;0.70;0.57;;;8.80;99.90;;;;;;5027527;28;20222;-76
2023/12/13 02:26:28;;;;;;;3.42;1.80;;;8.80;99.90;;;;;;5025609;28;20542;-75
2023/12/13 02:28:55;;;;;;;10.85;1.63;;;8.80;99.90;;;;;;5012176;28;20037;-76
2023/12/13 02:31:22;;;;;;;4.03;1.30;;;8.80;99.90;;;;;;5024940;28;20043;-75
2023/12/13 02:33:48;;;;;;;1.73;1.40;;;8.80;99.90;;;;;;5031807;28;20119;-76
2023/12/13 02:36:14;;;;;;;1.10;0.90;;;8.80;99.90;;;;;;5024616;28;20424;-75
2023/12/13 02:38:42;;;;;;;3.28;1.60;;;8.80;99.90;;;;;;5012172;28;20040;-75
2023/12/13 02:41:08;;;;;;;1.52;0.90;;;8.80;99.90;;;;;;5022384;28;20033;-75
2023/12/13 02:43:34;;;;;;;8.05;1.23;;;8.80;99.90;;;;;;5023001;28;20037;-75
2023/12/13 02:46:00;;;;;;;3.00;1.35;;;8.80;99.90;;;;;;5024190;28;20101;-75
2023/12/13 02:48:26;;;;;;;2.17;1.60;;;8.80;99.90;;;;;;5018543;28;20555;-74
2023/12/13 02:50:55;;;;;;;1.20;0.60;;;8.80;99.90;;;;;;5020806;28;20052;-74
2023/12/13 02:53:21;;;;;;;3.20;1.40;;;8.80;99.90;;;;;;5042725;28;20051;-74
2023/12/13 02:55:47;;;;;;;2.35;1.20;;;8.80;99.90;;;;;;5005026;28;20053;-74
2023/12/13 02:58:13;;;;;;;2.40;1.25;;;8.80;99.90;;;;;;5023079;28;20053;-74
2023/12/13 03:00:39;;;;;;;2.83;1.80;;;8.80;99.90;;;;;;5022701;28;20057;-74
2023/12/13 03:03:06;;;;;;;3.17;1.27;;;8.70;99.90;;;;;;5025082;28;20084;-74
2023/12/13 03:05:32;;;;;;;1.63;1.10;;;8.70;99.90;;;;;;5027800;28;20041;-73
2023/12/13 03:07:58;;;;;;;5.25;1.80;;;8.70;99.90;;;;;;5018756;28;20041;-73
2023/12/13 03:10:23;;;;;;;5.45;1.35;;;8.70;99.90;;;;;;5007587;28;20043;-74
2023/12/13 03:12:49;;;;;;;6.10;2.00;;;8.70;99.90;;;;;;5025556;28;20056;-74
2023/12/13 03:15:15;;;;;;;1.92;0.80;;;8.70;99.90;;;;;;5025783;28;20049;-73
2023/12/13 03:17:40;;;;;;;2.67;1.10;;;8.70;99.90;;;;;;5009374;28;20038;-73
2023/12/13 03:20:06;;;;;;;2.33;1.33;;;8.70;99.90;;;;;;5023333;28;20045;-73
2023/12/13 03:22:32;;;;;;;2.00;1.55;;;8.70;99.90;;;;;;5006081;28;20037;-73
2023/12/13 03:24:58;;;;;;;1.98;1.30;;;8.70;99.90;;;;;;5020273;28;20044;-73
2023/12/13 03:27:24;;;;;;;2.05;1.23;;;8.70;99.90;;;;;;5026873;28;20440;-73
2023/12/13 03:33:30;;;;;;;4.28;1.63;;;8.60;99.90;;;;;;5039105;28;20032;-73
2023/12/13 03:35:56;;;;;;;2.35;1.42;;;8.60;99.90;;;;;;5007632;28;20489;-73
2023/12/13 03:38:22;;;;;;;1.63;0.80;;;8.60;99.90;;;;;;5020871;28;20132;-72
2023/12/13 03:40:47;;;;;;;2.83;1.50;;;8.60;99.90;;;;;;5008709;28;20041;-72
2023/12/13 03:46:54;;;;;;;5.10;1.70;;;8.60;99.90;;;;;;5036468;28;20162;-72
2023/12/13 03:49:20;;;;;;;2.47;1.38;;;8.70;99.90;;;;;;5026240;28;20131;-73
2023/12/13 03:51:47;;;;;;;10.80;2.00;;;8.70;99.90;;;;;;5022495;28;20045;-72
2023/12/13 03:54:16;;;;;;;2.45;1.63;;;8.70;99.90;;;;;;5011298;28;20099;-72
2023/12/13 03:56:42;;;;;;;3.03;1.33;;;8.70;99.90;;;;;;5018829;28;20121;-72
2023/12/13 03:59:08;;;;;;;9.00;2.00;;;8.70;99.90;;;;;;5025589;28;20048;-72
2023/12/13 04:01:34;;;;;;;2.25;1.33;;;8.70;99.90;;;;;;5020216;28;20464;-72
2023/12/13 04:04:00;;;;;;;9.23;1.80;;;8.70;99.90;;;;;;5006169;28;20076;-71
2023/12/13 04:06:25;;;;;;;3.35;2.08;;;8.80;99.90;;;;;;5012466;28;20067;-71
2023/12/13 04:08:51;;;;;;;3.63;2.50;;;8.80;99.90;;;;;;5022539;28;20041;-71
2023/12/13 04:11:17;;;;;;;2.67;1.67;;;8.70;99.90;;;;;;5023413;28;20455;-71
2023/12/13 04:13:42;;;;;;;3.38;2.08;;;8.80;99.90;;;;;;5023367;28;20040;-71
2023/12/13 04:16:08;;;;;;;2.65;1.55;;;8.80;99.90;;;;;;5020857;28;20059;-71
2023/12/13 04:18:35;;;;;;;3.13;1.58;;;8.80;99.90;;;;;;5028125;28;20044;-71
2023/12/13 04:21:01;;;;;;;5.82;2.35;;;8.80;99.90;;;;;;5022228;28;20109;-71
2023/12/13 04:23:27;;;;;;;2.35;1.52;;;8.80;99.90;;;;;;5026220;28;20425;-71
2023/12/13 04:25:52;;;;;;;3.00;1.83;;;8.80;99.90;;;;;;5020305;28;20033;-71
2023/12/13 04:28:18;;;;;;;2.80;1.45;;;8.80;99.90;;;;;;5003245;28;20528;-71
2023/12/13 04:30:44;;;;;;;4.60;1.75;;;8.80;99.90;;;;;;5022972;28;20041;-71
2023/12/13 04:33:10;;;;;;;3.28;2.05;;;8.80;99.90;;;;;;5041191;28;20044;-71
2023/12/13 04:35:35;;;;;;;3.25;1.95;;;8.80;99.90;;;;;;5018581;28;20124;-72
2023/12/13 04:38:01;;;;;;;4.25;2.30;;;8.80;99.90;;;;;;5021667;28;20049;-71
2023/12/13 04:40:28;;;;;;;5.03;2.30;;;8.80;99.90;;;;;;5014502;28;20308;-71
2023/12/13 04:42:54;;;;;;;5.03;1.92;;;8.80;99.90;;;;;;5024726;28;20049;-71
2023/12/13 04:45:20;;;;;;;6.35;2.38;;;8.80;99.90;;;;;;5016831;28;20036;-71
2023/12/13 04:47:46;;;;;;;6.18;2.40;;;8.80;99.90;;;;;;5003779;28;20041;-71
2023/12/13 04:50:11;;;;;;;2.42;1.83;;;8.70;99.90;;;;;;5015673;28;20080;-71
2023/12/13 04:52:37;;;;;;;5.13;2.63;;;8.70;99.90;;;;;;5015933;28;20492;-71
2023/12/13 04:55:03;;;;;;;3.00;1.70;;;8.70;99.90;;;;;;5019165;28;20045;-71
2023/12/13 04:57:29;;;;;;;2.03;1.50;;;8.70;99.90;;;;;;5022791;28;20327;-71
2023/12/13 04:59:55;;;;;;;4.03;2.75;;;8.70;99.90;;;;;;5022837;28;20128;-71
2023/12/13 05:02:20;;;;;;;3.78;2.17;;;8.60;99.90;;;;;;5018372;28;20038;-71
2023/12/13 05:04:47;;;;;;;3.40;1.33;;;8.70;99.90;;;;;;5021931;28;20390;-71
2023/12/13 05:07:13;;;;;;;8.73;2.00;;;8.60;99.90;;;;;;5023444;28;20116;-71
2023/12/13 05:09:38;;;;;;;2.63;2.05;;;8.60;99.90;;;;;;5016714;28;20045;-71
2023/12/13 05:12:05;;;;;;;3.10;1.73;;;8.50;99.90;;;;;;5021995;28;20049;-71
2023/12/13 05:14:30;;;;;;;3.38;2.50;;;8.60;99.90;;;;;;5024531;28;20099;-71
2023/12/13 05:16:56;;;;;;;4.20;2.47;;;8.50;99.90;;;;;;5024988;28;20045;-72
2023/12/13 05:19:22;;;;;;;2.83;2.13;;;8.50;99.90;;;;;;5020812;28;20124;-71
2023/12/13 05:21:48;;;;;;;3.33;2.33;;;8.50;99.90;;;;;;5022799;28;20025;-71
2023/12/13 05:24:13;;;;;;;4.53;2.20;;;8.50;99.90;;;;;;5025579;28;20508;-71
2023/12/13 05:26:39;;;;;;;2.72;1.95;;;8.50;99.90;;;;;;5021053;28;20072;-71
2023/12/13 05:29:05;;;;;;;3.15;1.92;;;8.50;99.90;;;;;;5020734;28;20060;-72
2023/12/13 05:31:30;;;;;;;3.15;2.22;;;8.50;99.90;;;;;;5020959;28;20040;-71
2023/12/13 05:33:56;;;;;;;3.08;2.17;;;8.50;99.90;;;;;;5024968;28;20048;-71
2023/12/13 05:36:22;;;;;;;3.17;1.98;;;8.50;99.90;;;;;;5019270;28;20481;-71
2023/12/13 05:38:47;;;;;;;4.18;2.88;;;8.50;99.90;;;;;;5022845;28;20099;-71
2023/12/13 05:41:13;;;;;;;4.00;2.35;;;8.50;99.90;;;;;;5018560;28;20443;-71
2023/12/13 05:43:39;;;;;;;3.47;2.35;;;8.50;99.90;;;;;;5026762;28;20382;-71
2023/12/13 05:46:06;;;;;;;3.75;2.22;;;8.60;99.90;;;;;;5020698;28;20469;-71
2023/12/13 05:48:32;;;;;;;6.75;3.03;;;8.60;99.90;;;;;;5021484;28;20060;-71
2023/12/13 05:50:58;;;;;;;4.32;1.92;;;8.60;99.90;;;;;;5023443;28;20485;-71
2023/12/13 05:53:24;;;;;;;2.65;1.50;;;8.60;99.90;;;;;;5020777;28;20153;-71
2023/12/13 05:55:50;;;;;;;4.00;2.20;;;8.60;99.90;;;;;;5005660;28;20116;-71
2023/12/13 05:58:16;;;;;;;4.80;2.30;;;8.60;99.90;;;;;;5020774;28;20040;-71
2023/12/13 06:00:42;;;;;;;5.40;2.58;;;8.60;99.90;;;;;;5013879;28;20048;-71
2023/12/13 06:03:09;;;;;;;6.10;3.40;;;8.60;99.90;;;;;;5022408;28;20047;-71
2023/12/13 06:05:35;;;;;;;3.83;2.65;;;8.60;99.90;;;;;;5014118;28;20489;-71
2023/12/13 06:08:00;;;;;;;5.70;3.20;;;8.60;99.90;;;;;;5017858;28;20271;-71
2023/12/13 06:10:26;;;;;;;2.28;1.70;;;8.60;99.90;;;;;;5022797;28;20077;-72
2023/12/13 06:12:52;;;;;;;3.40;2.38;;;8.60;99.90;;;;;;5021360;28;20083;-72
2023/12/13 06:15:21;;;;;;;3.47;2.22;;;8.60;99.90;;;;;;5028294;28;20049;-72
2023/12/13 06:17:48;;;;;;;5.03;2.83;;;8.60;99.90;;;;;;5020300;28;20438;-72
2023/12/13 06:20:14;;;;;;;5.75;2.95;;;8.60;99.90;;;;;;5025428;28;20032;-72
2023/12/13 06:22:39;;;;;;;3.15;2.63;;;8.70;99.90;;;;;;5021260;28;20071;-71
2023/12/13 06:25:06;;;;;;;2.63;1.70;;;8.70;99.90;;;;;;5022149;28;20045;-71
2023/12/13 06:27:32;;;;;;;3.15;1.90;;;8.70;99.90;;;;;;5021940;28;20128;-72
2023/12/13 06:29:57;;;;;;;3.70;2.40;;;8.70;99.90;;;;;;5024938;28;20123;-71
2023/12/13 06:32:23;;;;;;;2.80;2.03;;;8.70;99.90;;;;;;5018847;28;20041;-71
2023/12/13 06:34:49;;;;;;;2.75;2.28;;;8.70;99.90;;;;;;5021656;28;20040;-71
2023/12/13 06:37:14;;;;;;;3.17;2.38;;;8.70;99.90;;;;;;5016732;28;20079;-71
2023/12/13 06:39:40;;;;;;;3.50;2.22;;;8.70;99.90;;;;;;5019697;28;20484;-72
2023/12/13 06:42:09;;;;;;;3.25;2.40;;;8.70;99.90;;;;;;5008872;28;20119;-71
2023/12/13 06:44:39;;;;;;;12.20;2.60;;;8.70;99.90;;;;;;5019618;28;20029;-71
2023/12/13 06:47:05;;;;;;;4.65;2.05;;;8.70;99.90;;;;;;5020711;28;20080;-71
2023/12/13 06:49:34;;;;;;;3.97;2.30;;;8.70;99.90;;;;;;5017713;28;20102;-71
2023/12/13 06:52:01;;;;;;;4.75;3.13;;;8.70;99.90;;;;;;5024483;28;20048;-71
2023/12/13 06:54:28;;;;;;;3.47;2.15;;;8.70;99.90;;;;;;5023785;28;20076;-71
2023/12/13 06:56:54;;;;;;;3.47;2.28;;;8.70;99.90;;;;;;5027912;28;20041;-71
2023/12/13 06:59:20;;;;;;;3.58;2.45;;;8.70;99.90;;;;;;5021768;28;20377;-71
2023/12/13 07:01:46;;;;;;;6.00;2.47;;;8.70;99.90;;;;;;5018777;28;20057;-71
2023/12/13 07:04:11;;;;;;;3.90;2.08;;;8.70;99.90;;;;;;5027373;28;20078;-72
2023/12/13 07:06:37;;;;;;;8.07;2.72;;;8.70;99.90;;;;;;5018435;28;20034;-71
2023/12/13 07:09:03;;;;;;;4.03;2.88;;;8.70;99.90;;;;;;5015435;28;20041;-72
2023/12/13 07:11:29;;;;;;;5.88;3.33;;;8.70;99.90;;;;;;5035792;28;20163;-71
2023/12/13 07:13:59;;;;;;;3.80;2.35;;;8.70;99.90;;;;;;5015688;28;20089;-72
2023/12/13 07:16:26;;;;;;;8.75;4.07;;;8.70;99.90;;;;;;5003072;28;20047;-72
2023/12/13 07:18:51;;;;;;;9.65;3.17;;;8.70;99.90;;;;;;5016935;28;20052;-72
2023/12/13 07:21:17;;;;;;;3.13;2.13;;;8.70;99.90;;;;;;5021417;28;20033;-72
2023/12/13 07:23:43;;;;;;;10.68;2.63;;;8.70;99.90;;;;;;5012261;28;20045;-71
2023/12/13 07:26:08;;;;;;;4.18;2.88;;;8.70;99.90;;;;;;5018619;28;20126;-72
2023/12/13 07:28:35;;;;;;;4.18;3.05;;;8.70;99.90;;;;;;5014920;28;20050;-72
2023/12/13 07:31:05;;;;;;;12.52;2.72;;;8.70;99.90;;;;;;5015237;28;20056;-72
2023/12/13 07:33:34;;;;;;;3.35;2.67;;;8.70;99.90;;;;;;5013805;28;20046;-72
2023/12/13 07:36:00;;;;;;;5.35;2.40;;;8.80;99.90;;;;;;5015586;28;20092;-72
2023/12/13 07:38:26;;;;;;;4.35;3.03;;;8.70;99.90;;;;;;5023497;28;20146;-72
2023/12/13 07:40:52;;;;;;;4.00;2.70;;;8.70;99.90;;;;;;5015594;28;20069;-72
2023/12/13 07:43:17;;;;;;;4.40;1.65;;;8.70;99.90;;;;;;5023204;28;20126;-71
2023/12/13 07:45:43;;;;;;;2.78;2.25;;;8.70;99.90;;;;;;5018149;28;20037;-72
2023/12/13 07:48:09;;;;;;;4.47;2.47;;;8.70;99.90;;;;;;5032677;28;20052;-72
2023/12/13 07:50:34;;;;;;;3.58;2.53;;;8.70;99.90;;;;;;5020366;28;20912;-72
2023/12/13 07:53:00;;;;;;;4.00;2.85;;;8.70;99.90;;;;;;5017331;28;20060;-72
2023/12/13 07:55:26;;;;;;;4.95;3.20;;;8.70;99.90;;;;;;5013605;28;20044;-72
2023/12/13 07:57:51;;;;;;;3.92;2.78;;;8.70;99.90;;;;;;5020197;28;20068;-72
2023/12/13 08:00:18;;;;;;;3.88;2.53;;;8.70;99.90;;;;;;5017719;28;20056;-72
2023/12/13 08:02:44;;;;;;;4.15;2.83;;;8.70;99.90;;;;;;5019166;28;20042;-72
2023/12/13 08:05:10;;;;;;;5.32;3.10;;;8.70;99.90;;;;;;5018907;28;20087;-72
2023/12/13 08:07:35;;;;;;;2.75;1.58;;;8.70;99.90;;;;;;5019132;28;20053;-72
2023/12/13 08:10:03;;;;;;;4.85;2.85;;;8.70;99.90;;;;;;5016783;28;20220;-72
2023/12/13 08:12:29;;;;;;;4.75;2.50;;;8.70;99.90;;;;;;5014020;28;20045;-72
2023/12/13 08:14:54;;;;;;;3.72;1.77;;;8.70;99.90;;;;;;5017713;28;20151;-72
2023/12/13 08:17:20;;;;;;;3.15;2.22;;;8.70;99.90;;;;;;5017045;28;20204;-72
2023/12/13 08:19:46;;;;;;;4.45;2.65;;;8.70;99.90;;;;;;5020372;28;20037;-72
2023/12/13 08:22:12;;;;;;;3.75;2.17;;;8.70;99.90;;;;;;5020471;28;20041;-72
2023/12/13 08:24:37;;;;;;;4.05;2.55;;;8.80;99.90;;;;;;5019978;28;20060;-72
2023/12/13 08:27:03;;;;;;;4.60;2.88;;;8.70;99.90;;;;;;5008677;28;20164;-72
2023/12/13 08:29:30;;;;;;;4.95;2.97;;;8.70;99.90;;;;;;5016117;28;20115;-72
2023/12/13 08:31:56;;;;;;;3.72;2.70;;;8.70;99.90;;;;;;5021567;28;20049;-72
2023/12/13 08:34:21;;;;;;;2.75;2.22;;;8.70;99.90;;;;;;5020564;28;20442;-72
2023/12/13 08:36:47;;;;;;;3.03;1.73;;;8.80;99.90;;;;;;5015551;28;20112;-72
2023/12/13 08:39:13;;;;;;;4.05;2.13;;;8.70;99.90;;;;;;5023561;28;20044;-72
2023/12/13 08:41:39;;;;;;;6.32;2.80;;;8.80;99.90;;;;;;5021339;28;20041;-72
2023/12/13 08:44:05;;;;;;;3.50;2.08;;;8.80;99.90;;;;;;5021101;28;20033;-72
2023/12/13 08:46:30;;;;;;;4.38;2.15;;;8.80;99.90;;;;;;5020481;28;20469;-72
2023/12/13 08:48:56;;;;;;;3.58;2.47;;;8.80;99.90;;;;;;5024290;28;20849;-72
2023/12/13 08:51:22;;;;;;;4.80;2.88;;;8.80;99.90;;;;;;5019797;28;20046;-72
2023/12/13 08:53:49;;;;;;;2.88;1.85;;;8.80;99.90;;;;;;5021963;28;20048;-72
2023/12/13 08:56:15;;;;;;;3.75;2.45;;;8.80;99.90;;;;;;5024797;28;20049;-72
2023/12/13 08:58:41;;;;;;;4.20;2.83;;;8.90;99.90;;;;;;5027663;28;20129;-72
2023/12/13 09:01:07;;;;;;;3.13;2.15;;;8.90;99.90;;;;;;5025377;28;20136;-72
2023/12/13 09:03:33;;;;;;;8.57;2.28;;;8.90;99.90;;;;;;5035082;28;20045;-72
2023/12/13 09:05:58;;;;;;;3.90;2.55;;;8.90;99.90;;;;;;5020943;28;20121;-72
2023/12/13 09:08:24;;;;;;;3.50;2.20;;;8.90;99.90;;;;;;5020405;28;20045;-72
2023/12/13 09:10:50;;;;;;;4.00;2.45;;;8.90;99.90;;;;;;5020085;28;20128;-72
2023/12/13 09:13:16;;;;;;;5.90;3.22;;;8.90;99.90;;;;;;5020320;28;20041;-72
2023/12/13 09:15:42;;;;;;;4.68;2.40;;;8.90;99.90;;;;;;5020815;28;20029;-72
2023/12/13 09:18:09;;;;;;;5.07;2.30;;;8.90;99.90;;;;;;5019541;28;20564;-72
2023/12/13 09:20:35;;;;;;;5.10;2.80;;;8.90;99.90;;;;;;5021778;28;20268;-72
2023/12/13 09:23:00;;;;;;;2.88;1.88;;;9.00;99.90;;;;;;5037353;28;20118;-72
2023/12/13 09:25:26;;;;;;;1.52;1.40;;;9.00;99.90;;;;;;5022052;28;20041;-72
2023/12/13 09:27:52;;;;;;;6.28;2.50;;;9.00;99.90;;;;;;5019682;28;20073;-72
2023/12/13 09:30:18;;;;;;;5.15;2.72;;;9.00;99.90;;;;;;5019211;28;20412;-72
2023/12/13 09:32:44;;;;;;;4.68;2.78;;;9.00;99.90;;;;;;5021556;28;20053;-72
2023/12/13 09:35:09;;;;;;;4.05;1.83;;;9.10;99.90;;;;;;5006744;28;20041;-72
2023/12/13 09:37:35;;;;;;;3.45;2.45;;;9.00;99.90;;;;;;5015225;28;20108;-72
2023/12/13 09:40:02;;;;;;;3.72;2.13;;;9.00;99.90;;;;;;5022018;28;20077;-72
2023/12/13 09:42:29;;;;;;;3.90;2.75;;;9.10;99.90;;;;;;5018686;28;20046;-72
2023/12/13 09:44:55;;;;;;;4.55;2.42;;;9.10;99.90;;;;;;5019826;28;20124;-72
2023/12/13 09:47:25;;;;;;;3.35;2.50;;;9.10;99.90;;;;;;5017463;28;20076;-72
2023/12/13 09:49:52;;;;;;;5.72;2.70;;;9.10;99.90;;;;;;5014700;28;20037;-72
2023/12/13 09:52:20;;;;;;;3.22;1.80;;;9.10;99.90;;;;;;5023537;28;20045;-72
2023/12/13 09:54:47;;;;;;;3.97;2.25;;;9.10;99.90;;;;;;5023487;28;20128;-72
2023/12/13 09:57:14;;;;;;;10.32;2.80;;;9.20;99.90;;;;;;5020532;28;20041;-72
2023/12/13 09:59:40;;;;;;;3.85;2.05;;;9.20;99.90;;;;;;5022322;28;20046;-72
2023/12/13 10:02:13;;;;;;;3.53;2.63;;;9.20;99.90;;;;;;5020167;28;20144;-72
2023/12/13 10:04:40;;;;;;;2.85;1.92;;;9.20;99.90;;;;;;5039299;28;20042;-72
2023/12/13 10:07:07;;;;;;;7.38;2.75;;;9.20;99.90;;;;;;5023674;28;20406;-72
2023/12/13 10:09:34;;;;;;;4.20;1.83;;;9.30;99.90;;;;;;5018623;28;20072;-72
2023/12/13 10:12:00;;;;;;;3.53;2.17;;;9.30;99.90;;;;;;5019850;28;20034;-72
2023/12/13 10:14:26;;;;;;;6.28;3.28;;;9.30;99.90;;;;;;5035214;28;20113;-72
2023/12/13 10:16:53;;;;;;;6.75;2.55;;;9.30;99.90;;;;;;5020181;28;20045;-72
2023/12/13 10:19:19;;;;;;;3.38;1.90;;;9.40;99.90;;;;;;5019984;28;20048;-72
2023/12/13 10:21:50;;;;;;;5.03;2.97;;;9.40;99.90;;;;;;5016344;28;20030;-71
2023/12/13 10:24:16;;;;;;;5.72;3.40;;;9.40;99.90;;;;;;5019646;28;20052;-72
2023/12/13 10:26:42;;;;;;;5.03;2.53;;;9.40;99.90;;;;;;5015527;28;20177;-72
2023/12/13 10:29:07;;;;;;;3.83;2.47;;;9.50;99.90;;;;;;5023149;28;20397;-71
2023/12/13 10:31:35;;;;;;;4.85;2.17;;;9.40;99.90;;;;;;5016397;28;20033;-72
2023/12/13 10:34:01;;;;;;;3.45;2.20;;;9.50;99.90;;;;;;5018466;28;20188;-72
2023/12/13 10:36:29;;;;;;;4.05;2.20;;;9.50;99.90;;;;;;5016960;28;20535;-72
2023/12/13 10:38:56;;;;;;;3.47;2.40;;;9.40;99.90;;;;;;5021274;28;20512;-72
2023/12/13 10:41:26;;;;;;;5.45;2.75;;;9.50;99.90;;;;;;5020669;28;20382;-72
2023/12/13 10:43:57;;;;;;;4.32;3.13;;;9.50;99.90;;;;;;5016852;28;20041;-72
2023/12/13 10:46:27;;;;;;;4.00;2.80;;;9.50;99.90;;;;;;5023556;28;20040;-72
2023/12/13 10:48:54;;;;;;;4.38;2.88;;;9.60;99.90;;;;;;5025514;28;20042;-72
2023/12/13 10:51:21;;;;;;;3.35;2.67;;;9.50;99.90;;;;;;5026618;28;20046;-72
2023/12/13 10:53:48;;;;;;;4.68;2.65;;;9.60;99.90;;;;;;5021870;28;20037;-72
2023/12/13 10:56:18;;;;;;;6.97;2.55;;;9.60;99.90;;;;;;5022331;28;20077;-72
2023/12/13 10:58:46;;;;;;;3.90;2.25;;;9.60;99.90;;;;;;5018253;28;20417;-72
2023/12/13 11:01:14;;;;;;;12.60;2.75;;;9.60;99.90;;;;;;5031246;28;20053;-72
2023/12/13 11:03:52;;;;;;;7.15;3.03;;;9.60;99.90;;;;;;5023154;28;20045;-72
2023/12/13 11:06:18;;;;;;;8.07;3.47;;;9.60;99.90;;;;;;5018213;28;20379;-72
2023/12/13 11:08:44;;;;;;;4.10;2.58;;;9.70;99.90;;;;;;5018802;28;20034;-72
2023/12/13 11:11:16;;;;;;;5.05;2.90;;;9.70;99.90;;;;;;5015489;28;20042;-72
2023/12/13 11:13:52;;;;;;;5.07;3.22;;;9.70;99.90;;;;;;5022623;28;20099;-72
2023/12/13 11:16:23;;;;;;;6.57;2.90;;;9.70;99.90;;;;;;5017485;28;20175;-72
2023/12/13 11:18:51;;;;;;;6.30;3.17;;;9.70;99.90;;;;;;5036296;28;20473;-72
2023/12/13 11:21:33;;;;;;;4.97;2.53;;;9.70;99.90;;;;;;5020954;28;20053;-72
2023/12/13 11:24:09;;;;;;;5.43;3.13;;;9.70;99.90;;;;;;5015757;28;20140;-72
2023/12/13 11:26:43;;;;;;;5.22;2.45;;;9.80;99.90;;;;;;5018396;28;20033;-72
2023/12/13 11:29:17;;;;;;;5.65;2.85;;;9.80;99.90;;;;;;5034689;28;20131;-71
2023/12/13 11:31:50;;;;;;;;;;;9.70;99.90;;;;;;5017511;28;20037;-71
2023/12/13 11:34:17;;;;;;;2.90;2.33;;;9.70;99.90;;;;;;5016073;28;19943;-72
2023/12/13 11:36:44;;;;;;;8.00;2.28;;;9.70;99.90;;;;;;5016628;28;20065;-72
2023/12/13 11:39:10;;;;;;;4.55;2.45;;;9.70;99.90;;;;;;5016780;28;20049;-72
2023/12/13 11:41:36;;;;;;;3.95;2.78;;;9.80;99.90;;;;;;5016257;28;20049;-72
2023/12/13 11:44:03;;;;;;;4.45;2.60;;;9.80;99.90;;;;;;5025473;28;20037;-72
2023/12/13 11:46:30;;;;;;;5.00;2.88;;;9.80;99.90;;;;;;5021071;28;20076;-72
2023/12/13 11:48:56;;;;;;;3.90;2.67;;;9.70;99.90;;;;;;5017986;28;20133;-71
2023/12/13 11:51:22;;;;;;;5.50;2.80;;;9.80;99.90;;;;;;5016903;28;20145;-72
2023/12/13 11:53:51;;;;;;;7.20;3.15;;;9.80;99.90;;;;;;5016191;28;20045;-72
2023/12/13 11:56:18;;;;;;;5.55;2.63;;;9.80;99.90;;;;;;5018894;28;20414;-71
2023/12/13 11:58:44;;;;;;;3.50;2.45;;;9.80;99.90;;;;;;5016300;28;20510;-71
2023/12/13 12:01:13;;;;;;;3.75;2.17;;;9.80;99.90;;;;;;5023660;28;20060;-72
2023/12/13 12:03:39;;;;;;;6.28;2.70;;;9.80;99.90;;;;;;5024331;28;20041;-72
2023/12/13 12:06:18;;;;;;;5.88;2.33;;;9.80;99.90;;;;;;5018275;28;20120;-71
2023/12/13 12:08:47;;;;;;;4.55;3.05;;;9.80;99.90;;;;;;5016342;28;20042;-71
2023/12/13 12:11:15;;;;;;;5.40;3.40;;;9.80;99.90;;;;;;5014575;28;20045;-72
2023/12/13 12:13:41;;;;;;;4.85;2.72;;;9.80;99.90;;;;;;5021803;28;20383;-70
2023/12/13 12:16:09;;;;;;;4.57;3.17;;;9.90;99.90;;;;;;5033245;28;20489;-72
2023/12/13 12:18:38;;;;;;;4.80;2.45;;;9.80;99.90;;;;;;5019600;28;20161;-70
2023/12/13 12:21:08;;;;;;;4.10;2.83;;;9.80;99.90;;;;;;5019177;28;20045;-71
2023/12/13 12:23:40;;;;;;;4.72;2.47;;;9.80;99.90;;;;;;5009719;28;20132;-70
2023/12/13 12:26:11;;;;;;;14.05;3.25;;;9.90;99.90;;;;;;5014376;28;20434;-71
2023/12/13 12:28:39;;;;;;;3.95;2.53;;;9.90;99.90;;;;;;5034436;28;20498;-71
2023/12/13 12:31:05;;;;;;;8.15;3.45;;;9.80;99.90;;;;;;5015187;28;20045;-71
2023/12/13 12:33:30;;;;;;;8.05;3.78;;;9.90;99.90;;;;;;5023294;28;20504;-71
2023/12/13 12:35:59;;;;;;;4.57;2.83;;;9.80;99.90;;;;;;5017725;28;20037;-71
2023/12/13 12:38:25;;;;;;;9.18;3.10;;;9.90;99.90;;;;;;5018535;28;20516;-71
2023/12/13 12:40:51;;;;;;;12.63;4.15;;;10.00;99.90;;;;;;5016789;28;20057;-71
2023/12/13 12:43:21;;;;;;;5.13;3.15;;;9.90;99.90;;;;;;5019558;28;20153;-71
2023/12/13 12:45:48;;;;;;;4.35;2.60;;;9.90;99.90;;;;;;5021828;28;20049;-71
2023/12/13 12:48:17;;;;;;;6.60;2.65;;;9.90;99.90;;;;;;5018530;28;20045;-71
2023/12/13 12:50:44;;;;;;;6.35;3.65;;;10.00;99.90;;;;;;5021289;28;20049;-71
2023/12/13 12:53:13;;;;;;;4.38;2.50;;;10.00;99.90;;;;;;5035262;28;20141;-71
2023/12/13 12:55:40;;;;;;;8.45;3.30;;;10.00;99.90;;;;;;5021639;28;20133;-71
2023/12/13 12:58:06;;;;;;;4.18;2.97;;;10.00;99.90;;;;;;5020138;28;20049;-71
2023/12/13 13:00:31;;;;;;;5.00;2.90;;;10.00;99.90;;;;;;5018015;28;20056;-71